Time;durP1;ratioP1;P1;durP2;ratioP2;P2;SDS_P1;SDS_P2;PMS_P1;PMS_P2;Temp;Humidity;BMP_temperature;BMP_pressure;BME280_temperature;BME280_humidity;BME280_pressure;Samples;Min_cycle;Max_cycle;Signal;HPM_P1;HPM_P2
2022/12/22 03:25:50;;;;;;;29.52;18.73;;;4.70;99.90;;;;;;2515136;23;20069;-77
2022/12/22 03:26:51;;;;;;;30.45;19.08;;;4.70;99.90;;;;;;2516073;23;20013;-77
2022/12/22 03:27:51;;;;;;;32.42;20.73;;;4.70;99.90;;;;;;2503183;23;20015;-77
2022/12/22 03:28:52;;;;;;;31.75;20.85;;;4.70;99.90;;;;;;2503342;23;20035;-77
2022/12/22 03:29:52;;;;;;;32.67;20.35;;;4.70;99.90;;;;;;2527335;23;20010;-77
2022/12/22 03:30:59;;;;;;;31.65;20.58;;;4.70;99.90;;;;;;2515130;23;20011;-77
2022/12/22 03:32:00;;;;;;;33.65;20.92;;;4.70;99.90;;;;;;2527269;23;20133;-76
2022/12/22 03:33:00;;;;;;;31.75;19.80;;;4.70;99.90;;;;;;2527098;23;20018;-77
2022/12/22 03:34:01;;;;;;;33.75;21.35;;;4.70;99.90;;;;;;2514844;23;20305;-77
2022/12/22 03:35:01;;;;;;;33.25;20.40;;;4.70;99.90;;;;;;2515038;23;20014;-77
2022/12/22 03:36:03;;;;;;;31.52;20.13;;;4.80;99.90;;;;;;2515969;23;20763;-77
2022/12/22 03:37:04;;;;;;;31.60;20.27;;;4.80;99.90;;;;;;2514679;23;20013;-76
2022/12/22 03:38:04;;;;;;;32.97;20.60;;;4.80;99.90;;;;;;2515163;23;20403;-76
2022/12/22 03:39:06;;;;;;;33.63;20.42;;;4.80;99.90;;;;;;2515981;23;20015;-76
2022/12/22 03:40:07;;;;;;;31.83;19.95;;;4.80;99.90;;;;;;2515779;23;20026;-77
2022/12/22 03:46:28;;;;;;;30.95;19.88;;;4.80;99.90;;;;;;2515698;23;20094;-77
2022/12/22 03:46:30;;;;;;;;;;;4.80;99.90;;;;;;2515978;23;20038;-76
2022/12/22 03:47:31;;;;;;;32.35;20.08;;;4.80;99.90;;;;;;2516099;23;19941;-74
2022/12/22 03:48:32;;;;;;;32.55;20.27;;;4.80;99.90;;;;;;2517998;23;20007;-76
2022/12/22 03:49:32;;;;;;;32.97;20.52;;;4.80;99.90;;;;;;2516606;23;20451;-78
2022/12/22 03:50:33;;;;;;;34.03;20.48;;;4.70;99.90;;;;;;2515739;23;20089;-77
2022/12/22 03:51:35;;;;;;;34.20;20.77;;;4.80;99.90;;;;;;2515592;23;20006;-77
2022/12/22 03:52:36;;;;;;;36.63;22.08;;;4.80;99.90;;;;;;2504036;23;20018;-77
2022/12/22 03:53:36;;;;;;;37.17;22.75;;;4.80;99.90;;;;;;2503550;23;20017;-77
2022/12/22 03:54:37;;;;;;;34.55;22.08;;;4.80;99.90;;;;;;2515771;23;20022;-76
2022/12/22 03:55:37;;;;;;;32.97;21.55;;;4.80;99.90;;;;;;2516396;23;20013;-76
2022/12/22 03:56:38;;;;;;;34.83;21.55;;;4.80;99.90;;;;;;2516276;23;20013;-78
2022/12/22 03:57:39;;;;;;;33.80;20.98;;;4.80;99.90;;;;;;2515649;23;20352;-77
2022/12/22 03:58:39;;;;;;;33.83;20.92;;;4.80;99.90;;;;;;2515641;23;20006;-78
2022/12/22 03:59:40;;;;;;;32.35;20.92;;;4.80;99.90;;;;;;2515566;23;20435;-78
2022/12/22 04:00:40;;;;;;;34.58;21.75;;;4.80;99.90;;;;;;2515637;23;20129;-78
2022/12/22 04:01:49;;;;;;;36.28;21.52;;;4.80;99.90;;;;;;2527791;23;20045;-78
2022/12/22 04:02:50;;;;;;;35.15;20.60;;;4.80;99.90;;;;;;2516570;23;20006;-78
2022/12/22 04:03:51;;;;;;;34.85;22.05;;;4.80;99.90;;;;;;2516669;23;20462;-78
2022/12/22 04:04:51;;;;;;;34.92;22.02;;;4.80;99.90;;;;;;2515764;23;20013;-78
2022/12/22 04:05:52;;;;;;;33.95;20.23;;;4.90;99.90;;;;;;2516074;23;20014;-77
2022/12/22 04:06:53;;;;;;;35.92;21.38;;;4.90;99.90;;;;;;2515968;23;20069;-77
2022/12/22 04:07:53;;;;;;;34.13;21.02;;;4.90;99.90;;;;;;2519062;23;20060;-79
2022/12/22 04:08:54;;;;;;;36.65;22.08;;;4.90;99.90;;;;;;2515587;23;20485;-78
2022/12/22 04:12:55;;;;;;;34.72;20.42;;;4.90;99.90;;;;;;2491289;23;20015;-78
2022/12/22 04:13:55;;;;;;;37.83;21.95;;;4.90;99.90;;;;;;2507964;23;20683;-79
2022/12/22 04:14:56;;;;;;;38.92;22.40;;;4.90;99.90;;;;;;2515547;23;20010;-77
2022/12/22 04:15:56;;;;;;;36.35;22.10;;;4.90;99.90;;;;;;2527770;23;20467;-77
2022/12/22 04:16:57;;;;;;;34.10;21.67;;;4.90;99.90;;;;;;2515335;23;20058;-78
2022/12/22 04:17:58;;;;;;;36.42;22.55;;;4.90;99.90;;;;;;2515578;23;20094;-78
2022/12/22 04:18:59;;;;;;;35.58;21.95;;;4.90;99.90;;;;;;2515476;23;20499;-78
2022/12/22 04:20:00;;;;;;;35.83;22.10;;;4.90;99.90;;;;;;2515769;23;20007;-78
2022/12/22 04:21:00;;;;;;;36.78;21.23;;;4.90;99.90;;;;;;2515573;23;20531;-78
2022/12/22 04:22:01;;;;;;;34.97;21.52;;;4.90;99.90;;;;;;2515552;23;20435;-78
2022/12/22 04:23:02;;;;;;;36.38;22.08;;;4.90;99.90;;;;;;2515692;23;20094;-78
2022/12/22 04:24:03;;;;;;;34.20;21.52;;;4.90;99.90;;;;;;2527819;23;20483;-78
2022/12/22 04:25:04;;;;;;;37.63;22.95;;;4.90;99.90;;;;;;2517726;23;20076;-77
2022/12/22 04:26:04;;;;;;;35.45;21.63;;;4.90;99.90;;;;;;2515666;23;20058;-78
2022/12/22 04:27:05;;;;;;;35.78;21.83;;;4.90;99.90;;;;;;2516708;23;20066;-78
2022/12/22 04:28:05;;;;;;;34.35;21.23;;;4.90;99.90;;;;;;2527570;23;20014;-77
2022/12/22 04:29:06;;;;;;;34.00;21.42;;;4.90;99.90;;;;;;2527542;23;20700;-78
2022/12/22 04:30:07;;;;;;;36.00;22.08;;;4.90;99.90;;;;;;2516396;23;20112;-78
2022/12/22 04:31:08;;;;;;;37.38;22.45;;;4.90;99.90;;;;;;2516368;23;20006;-77
2022/12/22 04:32:08;;;;;;;36.78;22.40;;;4.90;99.90;;;;;;2527268;23;19998;-76
2022/12/22 04:33:09;;;;;;;34.58;21.67;;;4.90;99.90;;;;;;2527451;23;20014;-76
2022/12/22 04:34:09;;;;;;;36.75;22.10;;;4.90;99.90;;;;;;2516077;23;20002;-78
2022/12/22 04:35:11;;;;;;;37.65;22.73;;;4.90;99.90;;;;;;2515481;23;20002;-78
2022/12/22 04:36:15;;;;;;;33.97;21.70;;;4.90;99.90;;;;;;2515552;23;20101;-79
2022/12/22 04:37:15;;;;;;;36.17;21.42;;;4.90;99.90;;;;;;2516164;23;20996;-78
2022/12/22 04:38:16;;;;;;;34.75;21.92;;;4.90;99.90;;;;;;2515393;23;20077;-77
2022/12/22 04:39:16;;;;;;;37.03;22.30;;;4.90;99.90;;;;;;2503705;23;20003;-76
2022/12/22 04:40:17;;;;;;;33.40;21.38;;;4.90;99.90;;;;;;2515610;23;20101;-77
2022/12/22 04:41:17;;;;;;;33.40;21.20;;;4.90;99.90;;;;;;2515583;23;20062;-77
2022/12/22 04:42:18;;;;;;;34.15;21.27;;;4.90;99.90;;;;;;2516555;23;20013;-76
2022/12/22 04:43:19;;;;;;;32.70;21.08;;;4.90;99.90;;;;;;2505945;23;20014;-72
2022/12/22 04:44:19;;;;;;;33.88;21.55;;;4.90;99.90;;;;;;2503404;23;20531;-73
2022/12/22 04:45:20;;;;;;;33.13;20.63;;;4.90;99.90;;;;;;2513073;23;20328;-72
2022/12/22 04:46:20;;;;;;;35.05;22.38;;;5.00;99.90;;;;;;2503828;23;20528;-73
2022/12/22 04:47:21;;;;;;;34.53;21.38;;;5.00;99.90;;;;;;2515649;23;20007;-74
2022/12/22 04:48:23;;;;;;;35.00;21.67;;;4.90;99.90;;;;;;2527965;23;20351;-73
2022/12/22 04:49:23;;;;;;;36.25;22.00;;;4.90;99.90;;;;;;2503496;23;20007;-74
2022/12/22 04:50:24;;;;;;;37.70;22.70;;;4.90;99.90;;;;;;2503476;23;20030;-73
2022/12/22 04:51:24;;;;;;;37.30;22.08;;;4.90;99.90;;;;;;2515176;23;20006;-73
2022/12/22 04:52:25;;;;;;;34.15;21.13;;;4.90;99.90;;;;;;2515496;23;19999;-73
2022/12/22 04:53:27;;;;;;;34.95;21.63;;;4.90;99.90;;;;;;2515684;23;20021;-79
2022/12/22 04:54:28;;;;;;;36.00;21.92;;;4.90;99.90;;;;;;2515627;23;20030;-76
2022/12/22 04:55:28;;;;;;;37.33;22.02;;;4.90;99.90;;;;;;2527657;23;20013;-77
2022/12/22 04:56:29;;;;;;;34.90;21.33;;;4.90;99.90;;;;;;2516549;23;20005;-79
2022/12/22 04:57:29;;;;;;;35.58;22.38;;;4.90;99.90;;;;;;2515573;23;20077;-78
2022/12/22 04:58:31;;;;;;;36.80;22.10;;;4.90;99.90;;;;;;2515514;23;20014;-76
2022/12/22 04:59:31;;;;;;;35.92;22.15;;;4.90;99.90;;;;;;2515392;23;20003;-77
2022/12/22 05:00:32;;;;;;;37.88;22.92;;;4.90;99.90;;;;;;2518146;23;20710;-77
2022/12/22 05:01:33;;;;;;;33.05;20.85;;;4.90;99.90;;;;;;2517749;23;20651;-79
2022/12/22 05:02:34;;;;;;;33.63;21.52;;;5.00;99.90;;;;;;2515522;23;20026;-79
2022/12/22 05:03:34;;;;;;;36.03;22.23;;;4.90;99.90;;;;;;2515273;23;20108;-79
2022/12/22 05:04:35;;;;;;;36.03;22.30;;;5.00;99.90;;;;;;2516233;23;20002;-79
2022/12/22 05:05:36;;;;;;;39.55;24.42;;;5.00;99.90;;;;;;2516322;23;20371;-76
2022/12/22 05:06:36;;;;;;;37.10;23.00;;;5.00;99.90;;;;;;2516034;23;20015;-77
2022/12/22 05:07:37;;;;;;;39.72;23.45;;;5.00;99.90;;;;;;2516125;23;20010;-76
2022/12/22 05:08:38;;;;;;;38.90;22.92;;;5.00;99.90;;;;;;2516374;23;20017;-76
2022/12/22 05:09:39;;;;;;;39.38;23.25;;;4.90;99.90;;;;;;2516079;23;20094;-77
2022/12/22 05:10:39;;;;;;;37.25;22.88;;;4.90;99.90;;;;;;2527436;23;20153;-77
2022/12/22 05:11:40;;;;;;;37.40;23.13;;;4.90;99.90;;;;;;2527472;23;20006;-76
2022/12/22 05:12:53;;;;;;;37.28;23.08;;;4.90;99.90;;;;;;2515349;23;20634;-78
2022/12/22 05:13:54;;;;;;;38.00;22.98;;;4.90;99.90;;;;;;2505973;23;20471;-76
2022/12/22 05:14:54;;;;;;;36.55;22.65;;;4.90;99.90;;;;;;2515929;23;20049;-77
2022/12/22 05:16:05;;;;;;;38.80;22.75;;;4.90;99.90;;;;;;2516508;23;20009;-76
2022/12/22 05:17:05;;;;;;;36.10;22.58;;;4.90;99.90;;;;;;2516194;23;20033;-77
2022/12/22 05:18:06;;;;;;;36.92;22.70;;;4.90;99.90;;;;;;2516144;23;20011;-81
2022/12/22 05:19:06;;;;;;;36.25;22.05;;;4.90;99.90;;;;;;2516094;23;20009;-77
2022/12/22 05:20:07;;;;;;;35.67;22.15;;;4.90;99.90;;;;;;2515223;23;20098;-75
2022/12/22 05:21:17;;;;;;;36.58;22.45;;;4.90;99.90;;;;;;2514953;23;20010;-77
2022/12/22 05:22:17;;;;;;;37.75;23.08;;;4.90;99.90;;;;;;2515167;23;20101;-77
2022/12/22 05:23:18;;;;;;;37.08;22.65;;;4.90;99.90;;;;;;2503467;23;20014;-77
2022/12/22 05:24:18;;;;;;;35.17;21.92;;;4.90;99.90;;;;;;2514967;23;20003;-78
2022/12/22 05:25:19;;;;;;;35.70;22.55;;;4.90;99.90;;;;;;2515448;23;20093;-77
2022/12/22 05:26:19;;;;;;;35.72;21.70;;;5.00;99.90;;;;;;2516230;23;20010;-77
2022/12/22 05:27:20;;;;;;;39.42;22.33;;;5.00;99.90;;;;;;2516069;23;20005;-77
2022/12/22 05:28:20;;;;;;;35.83;22.40;;;5.00;99.90;;;;;;2515436;23;20017;-78
2022/12/22 05:29:21;;;;;;;36.50;22.15;;;5.00;99.90;;;;;;2515106;23;20487;-78
2022/12/22 05:30:22;;;;;;;35.65;21.80;;;5.00;99.90;;;;;;2515817;23;20077;-78
2022/12/22 05:31:24;;;;;;;36.50;22.70;;;5.00;99.90;;;;;;2515678;23;20562;-76
2022/12/22 05:32:24;;;;;;;35.30;21.27;;;5.00;99.90;;;;;;2516080;23;20011;-79
2022/12/22 05:33:25;;;;;;;35.75;22.15;;;5.00;99.90;;;;;;2514943;23;20046;-78
2022/12/22 05:34:26;;;;;;;33.40;21.50;;;5.00;99.90;;;;;;2515206;23;20507;-77
2022/12/22 05:35:26;;;;;;;37.25;22.02;;;5.00;99.90;;;;;;2503459;23;20452;-77
2022/12/22 05:36:27;;;;;;;35.67;21.80;;;5.00;99.90;;;;;;2515364;23;20089;-78
2022/12/22 05:37:28;;;;;;;36.10;21.90;;;5.00;99.90;;;;;;2515999;23;20013;-79
2022/12/22 05:38:28;;;;;;;34.58;21.45;;;5.00;99.90;;;;;;2515061;23;20006;-77
2022/12/22 05:39:29;;;;;;;35.33;22.25;;;5.00;99.90;;;;;;2515170;23;20018;-78
2022/12/22 05:40:29;;;;;;;37.00;22.42;;;5.00;99.90;;;;;;2515500;23;20050;-79
2022/12/22 05:41:30;;;;;;;33.67;20.90;;;5.00;99.90;;;;;;2515458;23;20679;-77
2022/12/22 05:42:36;;;;;;;35.83;22.08;;;5.00;99.90;;;;;;2515777;23;20602;-78
2022/12/22 05:43:37;;;;;;;34.70;21.45;;;5.00;99.90;;;;;;2515263;23;20002;-77
2022/12/22 05:44:38;;;;;;;31.13;19.77;;;5.00;99.90;;;;;;2515264;23;20019;-79
2022/12/22 05:45:38;;;;;;;33.00;20.42;;;5.10;99.90;;;;;;2529531;23;20073;-80
2022/12/22 05:46:39;;;;;;;34.97;21.88;;;5.00;99.90;;;;;;2515104;23;20078;-79
2022/12/22 05:47:40;;;;;;;35.03;21.08;;;5.10;99.90;;;;;;2515284;23;20006;-79
2022/12/22 05:48:41;;;;;;;32.13;20.05;;;5.00;99.90;;;;;;2516108;23;20010;-78
2022/12/22 05:49:41;;;;;;;31.05;20.08;;;5.00;99.90;;;;;;2516240;23;20007;-78
2022/12/22 05:50:42;;;;;;;36.28;20.92;;;5.00;99.90;;;;;;2515177;23;20093;-79
2022/12/22 05:51:44;;;;;;;34.10;20.83;;;5.00;99.90;;;;;;2503512;23;20405;-78
2022/12/22 05:52:45;;;;;;;34.45;20.88;;;5.00;99.90;;;;;;2515342;23;20779;-78
2022/12/22 05:53:45;;;;;;;33.00;20.52;;;5.00;99.90;;;;;;2515971;23;20013;-77
2022/12/22 05:54:46;;;;;;;33.20;20.45;;;5.00;99.90;;;;;;2515127;23;20014;-77
2022/12/22 05:55:46;;;;;;;33.65;21.17;;;5.00;99.90;;;;;;2515397;23;20637;-77
2022/12/22 05:56:47;;;;;;;32.83;20.73;;;5.00;99.90;;;;;;2515458;23;20172;-78
2022/12/22 05:57:48;;;;;;;35.20;21.45;;;5.00;99.90;;;;;;2515981;23;20013;-79
2022/12/22 05:58:48;;;;;;;33.42;20.70;;;5.00;99.90;;;;;;2515145;23;20002;-79
2022/12/22 05:59:49;;;;;;;35.83;21.70;;;5.00;99.90;;;;;;2515324;23;20367;-77
2022/12/22 06:00:49;;;;;;;35.75;21.92;;;5.00;99.90;;;;;;2515263;23;20061;-79
2022/12/22 06:01:50;;;;;;;31.38;20.13;;;5.00;99.90;;;;;;2504407;23;20037;-80
2022/12/22 06:02:50;;;;;;;33.70;20.65;;;5.00;99.90;;;;;;2517429;23;20340;-80
2022/12/22 06:03:51;;;;;;;34.33;21.30;;;5.00;99.90;;;;;;2515227;23;20073;-80
2022/12/22 06:04:51;;;;;;;32.03;20.40;;;5.00;99.90;;;;;;2491408;23;20352;-80
2022/12/22 06:05:52;;;;;;;31.60;20.42;;;5.00;99.90;;;;;;2503593;23;20003;-80
2022/12/22 06:06:53;;;;;;;32.83;20.17;;;5.00;99.90;;;;;;2517008;23;20029;-79
2022/12/22 06:07:53;;;;;;;34.83;21.48;;;5.10;99.90;;;;;;2528067;23;20519;-78
2022/12/22 06:08:54;;;;;;;33.25;21.33;;;5.10;99.90;;;;;;2527731;23;20010;-79
2022/12/22 06:09:55;;;;;;;32.65;20.85;;;5.10;99.90;;;;;;2515001;23;20013;-78
2022/12/22 06:10:57;;;;;;;32.88;20.58;;;5.10;99.90;;;;;;2515054;23;20013;-78
2022/12/22 06:11:57;;;;;;;30.42;19.75;;;5.10;99.90;;;;;;2515026;23;20124;-78
2022/12/22 06:12:58;;;;;;;35.05;21.42;;;5.10;99.90;;;;;;2514727;23;20019;-78
2022/12/22 06:13:58;;;;;;;32.72;20.55;;;5.10;99.90;;;;;;2503346;23;21019;-78
2022/12/22 06:14:59;;;;;;;31.52;20.33;;;5.10;99.90;;;;;;2502944;23;20003;-77
2022/12/22 06:15:59;;;;;;;31.92;20.17;;;5.10;99.90;;;;;;2503270;23;20048;-77
2022/12/22 06:17:00;;;;;;;33.55;20.38;;;5.10;99.90;;;;;;2515001;23;20017;-77
2022/12/22 06:18:00;;;;;;;35.80;21.45;;;5.10;99.90;;;;;;2514835;23;20088;-78
2022/12/22 06:19:01;;;;;;;32.55;20.85;;;5.10;99.90;;;;;;2517328;23;20330;-78
2022/12/22 06:20:03;;;;;;;31.50;19.45;;;5.10;99.90;;;;;;2516341;23;20181;-77
2022/12/22 06:21:04;;;;;;;32.28;19.75;;;5.10;99.90;;;;;;2515236;23;20381;-77
2022/12/22 06:22:05;;;;;;;31.08;19.38;;;5.20;99.90;;;;;;2516011;23;20007;-78
2022/12/22 06:23:05;;;;;;;35.92;21.48;;;5.20;99.90;;;;;;2502982;23;20070;-78
2022/12/22 06:24:06;;;;;;;32.70;20.40;;;5.20;99.90;;;;;;2503314;23;20006;-77
2022/12/22 06:25:07;;;;;;;33.00;20.17;;;5.20;99.90;;;;;;2514896;23;20030;-79
2022/12/22 06:26:08;;;;;;;37.45;24.00;;;5.20;99.90;;;;;;2502887;23;20007;-77
2022/12/22 06:27:09;;;;;;;38.78;24.20;;;5.20;99.90;;;;;;2515114;23;20017;-78
2022/12/22 06:28:10;;;;;;;36.22;21.23;;;5.20;99.90;;;;;;2514967;23;20462;-77
2022/12/22 06:29:11;;;;;;;34.70;21.38;;;5.20;99.90;;;;;;2514850;23;20449;-77
2022/12/22 06:30:12;;;;;;;34.00;21.55;;;5.20;99.90;;;;;;2514868;23;20002;-76
2022/12/22 06:31:12;;;;;;;37.50;23.55;;;5.20;99.90;;;;;;2514617;23;20002;-79
2022/12/22 06:32:13;;;;;;;33.85;21.58;;;5.20;99.90;;;;;;2514716;23;20017;-78
2022/12/22 06:33:14;;;;;;;34.95;21.80;;;5.20;99.90;;;;;;2526880;23;20036;-79
2022/12/22 06:34:16;;;;;;;33.10;21.25;;;5.20;99.90;;;;;;2515802;23;20442;-78
2022/12/22 06:35:17;;;;;;;33.35;20.88;;;5.20;99.90;;;;;;2515181;23;20100;-79
2022/12/22 06:36:18;;;;;;;34.70;21.70;;;5.20;99.90;;;;;;2515410;23;20002;-79
2022/12/22 06:37:18;;;;;;;32.08;20.25;;;5.20;99.90;;;;;;2517096;23;20013;-77
2022/12/22 06:38:19;;;;;;;32.08;19.92;;;5.20;99.90;;;;;;2518150;23;20003;-77
2022/12/22 06:39:20;;;;;;;33.35;20.83;;;5.20;99.90;;;;;;2515442;23;20085;-79
2022/12/22 06:40:20;;;;;;;35.22;21.05;;;5.20;99.90;;;;;;2514899;23;20025;-79
2022/12/22 06:44:00;;;;;;;34.05;20.70;;;5.20;99.90;;;;;;2523674;23;20085;-79
2022/12/22 06:45:00;;;;;;;31.48;20.13;;;5.30;99.90;;;;;;2510771;23;20017;-79
2022/12/22 06:46:01;;;;;;;34.88;21.58;;;5.20;99.90;;;;;;2503333;23;20042;-79
2022/12/22 06:47:01;;;;;;;34.40;21.23;;;5.20;99.90;;;;;;2515159;23;20006;-79
2022/12/22 06:48:02;;;;;;;32.80;21.02;;;5.20;99.90;;;;;;2517425;23;20045;-79
2022/12/22 06:49:03;;;;;;;34.25;20.98;;;5.20;99.90;;;;;;2505129;23;20384;-79
2022/12/22 06:50:04;;;;;;;32.72;20.70;;;5.20;99.90;;;;;;2515137;23;20029;-79
2022/12/22 06:51:05;;;;;;;31.73;19.83;;;5.20;99.90;;;;;;2527217;23;20018;-79
2022/12/22 06:52:07;;;;;;;32.15;20.63;;;5.30;99.90;;;;;;2526881;23;20061;-79
2022/12/22 06:53:08;;;;;;;36.88;22.58;;;5.20;99.90;;;;;;2515029;23;20022;-78
2022/12/22 06:54:09;;;;;;;35.90;21.50;;;5.20;99.90;;;;;;2515331;23;20010;-77
2022/12/22 06:55:09;;;;;;;32.25;20.50;;;5.30;99.90;;;;;;2515844;23;20004;-77
2022/12/22 06:56:10;;;;;;;31.25;20.02;;;5.20;99.90;;;;;;2527314;23;20121;-79
2022/12/22 06:57:10;;;;;;;32.75;20.38;;;5.20;99.90;;;;;;2526947;23;20002;-79
2022/12/22 06:58:11;;;;;;;32.80;21.02;;;5.20;99.90;;;;;;2516048;23;20006;-80
2022/12/22 06:59:12;;;;;;;33.80;21.42;;;5.20;99.90;;;;;;2515582;23;20007;-79
2022/12/22 07:00:13;;;;;;;33.05;20.40;;;5.20;99.90;;;;;;2514916;23;20007;-79
2022/12/22 07:01:13;;;;;;;31.67;19.33;;;5.30;99.90;;;;;;2515328;23;20002;-79
2022/12/22 07:02:14;;;;;;;32.95;20.70;;;5.30;99.90;;;;;;2515473;23;20006;-79
2022/12/22 07:03:15;;;;;;;32.13;20.67;;;5.30;99.90;;;;;;2515337;23;20391;-79
2022/12/22 07:04:19;;;;;;;34.20;21.00;;;5.30;99.90;;;;;;2515551;23;20009;-77
2022/12/22 07:05:20;;;;;;;34.05;21.02;;;5.30;99.90;;;;;;2516467;23;20179;-79
2022/12/22 07:06:21;;;;;;;33.00;20.52;;;5.30;99.90;;;;;;2518140;23;20003;-78
2022/12/22 07:07:21;;;;;;;31.30;20.35;;;5.30;99.90;;;;;;2528065;23;20029;-78
2022/12/22 07:08:22;;;;;;;32.28;20.20;;;5.30;99.90;;;;;;2516507;23;20211;-80
2022/12/22 07:09:22;;;;;;;33.00;20.05;;;5.30;99.90;;;;;;2517032;23;20430;-78
2022/12/22 07:10:56;;;;;;;34.05;21.17;;;5.30;99.90;;;;;;2516320;23;20003;-78
2022/12/22 07:11:43;;;;;;;34.05;20.77;;;5.30;99.90;;;;;;2525903;23;20076;-78
2022/12/22 07:12:44;;;;;;;33.50;20.75;;;5.30;99.90;;;;;;2519066;23;20623;-80
2022/12/22 07:13:45;;;;;;;33.13;20.83;;;5.30;99.90;;;;;;2517781;23;20549;-77
2022/12/22 07:14:45;;;;;;;36.92;22.80;;;5.30;99.90;;;;;;2516228;23;20057;-76
2022/12/22 07:15:47;;;;;;;39.88;25.80;;;5.30;99.90;;;;;;2527499;23;19998;-74
2022/12/22 07:16:47;;;;;;;34.33;22.13;;;5.30;99.90;;;;;;2528800;23;20009;-82
2022/12/22 07:17:51;;;;;;;40.35;25.63;;;5.30;99.90;;;;;;2516619;23;20585;-73
2022/12/22 07:18:52;;;;;;;52.30;33.55;;;5.30;99.90;;;;;;2503517;23;20007;-76
2022/12/22 07:19:52;;;;;;;39.10;25.58;;;5.30;99.90;;;;;;2515222;23;20363;-76
2022/12/22 07:20:53;;;;;;;63.72;40.38;;;5.40;99.90;;;;;;2515261;23;20453;-74
2022/12/22 07:21:54;;;;;;;54.55;34.47;;;5.30;99.90;;;;;;2515632;23;20014;-77
2022/12/22 07:22:54;;;;;;;38.92;24.65;;;5.30;99.90;;;;;;2515840;23;20016;-75
2022/12/22 07:23:55;;;;;;;43.53;27.40;;;5.30;99.90;;;;;;2515738;23;20072;-78
2022/12/22 07:24:55;;;;;;;41.58;26.00;;;5.40;99.90;;;;;;2503774;23;20018;-76
2022/12/22 07:25:56;;;;;;;34.55;21.42;;;5.40;99.90;;;;;;2503594;23;20007;-75
2022/12/22 07:26:57;;;;;;;36.03;22.45;;;5.40;99.90;;;;;;2515475;23;20045;-73
2022/12/22 07:27:57;;;;;;;32.45;21.30;;;5.40;99.90;;;;;;2516382;23;20011;-75
2022/12/22 07:28:58;;;;;;;34.17;21.98;;;5.40;99.90;;;;;;2515551;23;20448;-73
2022/12/22 07:29:58;;;;;;;35.83;21.73;;;5.40;99.90;;;;;;2517918;23;20010;-73
2022/12/22 07:30:59;;;;;;;38.35;25.42;;;5.50;99.90;;;;;;2516503;23;20010;-76
2022/12/22 07:31:59;;;;;;;34.92;23.10;;;5.50;99.90;;;;;;2516880;23;20013;-82
2022/12/22 07:33:00;;;;;;;34.65;22.08;;;5.50;99.90;;;;;;2516897;23;20010;-77
2022/12/22 07:34:01;;;;;;;33.35;21.65;;;5.50;99.90;;;;;;2515586;23;20014;-72
2022/12/22 07:35:01;;;;;;;30.80;20.17;;;5.50;99.90;;;;;;2515385;23;20446;-73
2022/12/22 07:36:08;;;;;;;33.55;20.60;;;5.50;99.90;;;;;;2515492;23;20074;-77
2022/12/22 07:37:10;;;;;;;31.73;20.23;;;5.60;99.90;;;;;;2516971;23;20141;-77
2022/12/22 07:38:11;;;;;;;28.67;19.15;;;5.60;99.90;;;;;;2515964;23;20461;-78
2022/12/22 07:39:12;;;;;;;29.05;18.85;;;5.60;99.90;;;;;;2503839;23;20013;-78
2022/12/22 07:40:13;;;;;;;32.60;20.33;;;5.60;99.90;;;;;;2515837;23;20367;-76
2022/12/22 07:42:44;;;;;;;29.88;19.25;;;5.60;99.90;;;;;;2517412;23;20132;-75
2022/12/22 07:43:44;;;;;;;28.05;18.52;;;5.60;99.90;;;;;;2516297;23;19998;-76
2022/12/22 07:44:45;;;;;;;29.00;19.70;;;5.70;99.90;;;;;;2525002;23;20441;-77
2022/12/22 07:45:46;;;;;;;28.23;18.58;;;5.70;99.90;;;;;;2528228;23;20532;-74
2022/12/22 07:46:46;;;;;;;26.90;17.75;;;5.70;99.90;;;;;;2516427;23;20007;-77
2022/12/22 07:47:47;;;;;;;28.25;18.00;;;5.70;99.90;;;;;;2516451;23;20014;-81
2022/12/22 07:50:28;;;;;;;26.27;17.40;;;5.80;99.90;;;;;;2516105;23;20066;-72
2022/12/22 07:51:36;;;;;;;28.65;19.55;;;5.80;99.90;;;;;;2515497;23;20006;-76
2022/12/22 07:52:37;;;;;;;26.33;18.17;;;5.80;99.90;;;;;;2505076;23;20035;-75
2022/12/22 07:53:38;;;;;;;23.77;16.70;;;5.80;99.90;;;;;;2514944;23;20010;-75
2022/12/22 07:54:39;;;;;;;25.05;16.33;;;5.90;99.90;;;;;;2528911;23;19998;-75
2022/12/22 07:55:40;;;;;;;23.65;16.20;;;5.90;99.90;;;;;;2515721;23;20006;-76
2022/12/22 07:56:41;;;;;;;25.90;17.50;;;5.90;99.90;;;;;;2515236;23;20006;-76
2022/12/22 07:57:42;;;;;;;25.30;16.90;;;6.00;99.90;;;;;;2515433;23;20010;-75
2022/12/22 07:58:42;;;;;;;25.52;17.33;;;6.00;99.90;;;;;;2516166;23;20018;-76
2022/12/22 07:59:43;;;;;;;23.05;15.60;;;6.00;99.90;;;;;;2515087;23;20014;-76
2022/12/22 08:00:43;;;;;;;24.75;16.42;;;6.00;99.90;;;;;;2515491;23;20010;-75
2022/12/22 08:01:44;;;;;;;24.02;16.23;;;6.00;99.90;;;;;;2516322;23;20013;-76
2022/12/22 08:02:52;;;;;;;24.10;16.17;;;6.10;99.90;;;;;;2515388;23;20006;-76
2022/12/22 08:03:53;;;;;;;24.35;16.40;;;6.10;99.90;;;;;;2515280;23;20064;-76
2022/12/22 08:04:54;;;;;;;22.60;16.10;;;6.10;99.90;;;;;;2516364;23;20018;-76
2022/12/22 08:05:54;;;;;;;25.25;17.13;;;6.10;99.90;;;;;;2516426;23;20094;-76
2022/12/22 08:06:55;;;;;;;22.50;15.35;;;6.10;99.90;;;;;;2515798;23;20021;-75
2022/12/22 08:07:55;;;;;;;24.85;16.05;;;6.20;99.90;;;;;;2516300;23;20367;-78
2022/12/22 08:08:56;;;;;;;25.85;17.13;;;6.20;99.90;;;;;;2516308;23;20011;-75
2022/12/22 08:09:57;;;;;;;32.75;21.60;;;6.20;99.90;;;;;;2513504;23;20014;-75
2022/12/22 08:11:01;;;;;;;32.00;21.83;;;6.20;99.90;;;;;;2502965;23;20014;-76
2022/12/22 08:12:02;;;;;;;25.52;17.08;;;6.20;99.90;;;;;;2514852;23;20151;-76
2022/12/22 08:13:03;;;;;;;24.00;16.55;;;6.20;99.90;;;;;;2514993;23;20700;-76
2022/12/22 08:14:03;;;;;;;22.45;15.52;;;6.30;99.90;;;;;;2515130;23;20467;-76
2022/12/22 08:15:05;;;;;;;23.13;15.52;;;6.30;99.90;;;;;;2517142;23;20053;-75
2022/12/22 08:16:09;;;;;;;21.67;15.30;;;6.30;99.90;;;;;;2503124;23;20019;-76
2022/12/22 08:17:11;;;;;;;24.23;16.52;;;6.40;99.90;;;;;;2504242;23;20014;-76
2022/12/22 08:18:11;;;;;;;22.95;15.63;;;6.40;99.90;;;;;;2515867;23;20014;-76
2022/12/22 08:19:12;;;;;;;24.38;16.73;;;6.50;99.90;;;;;;2515301;23;20488;-76
2022/12/22 08:20:12;;;;;;;24.10;16.25;;;6.50;99.90;;;;;;2515358;23;20013;-77
2022/12/22 08:21:14;;;;;;;25.75;16.77;;;6.50;99.90;;;;;;2515220;23;20006;-77
2022/12/22 08:22:14;;;;;;;27.08;18.10;;;6.50;99.90;;;;;;2503334;23;20467;-77
2022/12/22 08:23:15;;;;;;;26.95;18.20;;;6.50;99.90;;;;;;2515155;23;20002;-76
2022/12/22 08:24:15;;;;;;;26.48;17.17;;;6.50;99.90;;;;;;2515432;23;19998;-77
2022/12/22 08:25:16;;;;;;;25.52;17.48;;;6.50;99.90;;;;;;2515157;23;20010;-77
2022/12/22 08:26:25;;;;;;;26.33;17.65;;;6.50;99.90;;;;;;2515501;23;20384;-77
2022/12/22 08:27:46;;;;;;;26.00;17.00;;;6.60;99.90;;;;;;2516304;23;20078;-77
2022/12/22 08:28:51;;;;;;;26.00;17.75;;;6.60;99.90;;;;;;2515506;23;20165;-79
2022/12/22 08:29:56;;;;;;;25.92;17.20;;;6.60;99.90;;;;;;2515180;23;20097;-75
2022/12/22 08:30:58;;;;;;;25.48;16.13;;;6.70;99.90;;;;;;2515931;23;20021;-77
2022/12/22 08:31:59;;;;;;;26.65;17.90;;;6.70;99.90;;;;;;2515304;23;20033;-79
2022/12/22 08:33:00;;;;;;;26.25;17.23;;;6.80;99.90;;;;;;2502629;23;20078;-71
2022/12/22 08:34:04;;;;;;;25.70;17.63;;;6.80;99.90;;;;;;2515164;23;20072;-72
2022/12/22 08:35:06;;;;;;;27.00;17.58;;;6.90;99.90;;;;;;2515876;23;20006;-75
2022/12/22 08:36:08;;;;;;;25.05;17.02;;;6.90;99.90;;;;;;2516055;23;20015;-75
2022/12/22 08:37:14;;;;;;;23.63;16.60;;;7.00;99.90;;;;;;2515945;23;20006;-75
2022/12/22 08:38:14;;;;;;;25.17;16.73;;;7.00;99.90;;;;;;2514995;23;20105;-76
2022/12/22 08:39:17;;;;;;;30.77;19.85;;;7.10;99.90;;;;;;2514817;23;20535;-76
2022/12/22 08:40:22;;;;;;;30.48;19.27;;;7.10;99.90;;;;;;2515073;23;20018;-76
2022/12/22 08:42:43;;;;;;;41.35;25.80;;;7.20;99.90;;;;;;2516007;23;20308;-76
2022/12/22 08:43:44;;;;;;;37.97;23.77;;;7.20;99.90;;;;;;2515600;23;20014;-76
2022/12/22 08:44:46;;;;;;;34.42;22.25;;;7.20;99.90;;;;;;2523750;23;20025;-76
2022/12/22 08:45:46;;;;;;;30.48;20.52;;;7.30;99.90;;;;;;2526928;23;20109;-77
2022/12/22 08:46:47;;;;;;;33.17;22.02;;;7.30;99.90;;;;;;2515925;23;20006;-76
2022/12/22 08:47:48;;;;;;;29.15;19.38;;;7.30;99.90;;;;;;2515739;23;20776;-75
2022/12/22 08:48:49;;;;;;;28.92;20.20;;;7.30;99.90;;;;;;2527150;23;20517;-75
2022/12/22 08:49:49;;;;;;;26.98;18.73;;;7.30;99.90;;;;;;2514959;23;20306;-76
2022/12/22 08:50:50;;;;;;;24.60;16.85;;;7.40;99.90;;;;;;2515112;23;20326;-76
2022/12/22 08:51:51;;;;;;;25.08;16.85;;;7.40;99.90;;;;;;2514864;23;20309;-74
2022/12/22 08:52:52;;;;;;;22.58;15.85;;;7.50;99.90;;;;;;2503256;23;20393;-74
2022/12/22 08:53:52;;;;;;;21.35;15.35;;;7.60;99.90;;;;;;2514393;23;20022;-75
2022/12/22 08:54:53;;;;;;;21.08;14.73;;;7.60;99.90;;;;;;2516291;23;20435;-73